createdAt,value
2017-12-12T00:00:38.295Z,-0.40
2017-12-12T00:03:07.687Z,-0.30
2017-12-12T00:05:37.126Z,-0.40
2017-12-12T00:08:05.776Z,-0.40
2017-12-12T00:10:35.175Z,-0.30
2017-12-12T00:13:04.966Z,-0.30
2017-12-12T00:15:33.599Z,-0.30
2017-12-12T00:18:02.236Z,-0.30
2017-12-12T00:20:32.203Z,-0.30
2017-12-12T00:23:00.839Z,-0.30
2017-12-12T00:25:29.472Z,-0.20
2017-12-12T00:27:58.117Z,-0.20
2017-12-12T00:30:26.760Z,-0.20
2017-12-12T00:32:56.619Z,-0.20
2017-12-12T00:35:25.359Z,-0.20
2017-12-12T00:37:53.677Z,-0.20
2017-12-12T00:40:23.092Z,-0.20
2017-12-12T00:42:52.509Z,-0.20
2017-12-12T00:45:20.871Z,-0.20
2017-12-12T00:47:50.964Z,-0.20
2017-12-12T00:50:21.105Z,-0.20
2017-12-12T00:52:50.868Z,-0.20
2017-12-12T00:55:19.503Z,-0.20
2017-12-12T00:57:48.169Z,-0.20
2017-12-12T01:00:16.474Z,-0.20
2017-12-12T01:02:45.130Z,-0.20
2017-12-12T01:05:13.780Z,-0.20
2017-12-12T01:07:42.403Z,-0.20
2017-12-12T01:10:11.810Z,-0.20
2017-12-12T01:12:41.219Z,-0.20
2017-12-12T01:15:10.610Z,-0.20
2017-12-12T01:17:40.017Z,-0.10
2017-12-12T01:20:09.431Z,-0.10
2017-12-12T01:22:38.073Z,-0.20
2017-12-12T01:25:06.721Z,-0.10
2017-12-12T01:27:35.412Z,-0.20
2017-12-12T01:30:03.707Z,-0.10
2017-12-12T01:32:32.336Z,-0.10
2017-12-12T01:35:01.781Z,-0.10
2017-12-12T01:37:30.418Z,-0.10
2017-12-12T01:39:59.828Z,-0.10
2017-12-12T01:42:28.610Z,0.00
2017-12-12T01:44:57.341Z,0.00
2017-12-12T01:47:25.320Z,0.00
2017-12-12T01:49:53.642Z,0.00
2017-12-12T01:52:22.696Z,0.00
2017-12-12T01:54:51.016Z,0.00
2017-12-12T01:57:20.124Z,0.00
2017-12-12T01:59:48.424Z,0.00
2017-12-12T02:02:17.096Z,0.10
2017-12-12T02:04:45.074Z,0.10
2017-12-12T02:07:13.046Z,0.00
2017-12-12T02:09:41.360Z,0.10
2017-12-12T02:12:09.328Z,0.10
2017-12-12T02:14:37.640Z,0.10
2017-12-12T02:17:06.109Z,0.10
2017-12-12T02:19:34.867Z,0.10
2017-12-12T02:22:02.827Z,0.10
2017-12-12T02:24:30.780Z,0.10
2017-12-12T02:26:58.765Z,0.20
2017-12-12T02:29:26.743Z,0.20
2017-12-12T02:31:54.713Z,0.20
2017-12-12T02:34:22.695Z,0.20
2017-12-12T02:36:50.665Z,0.20
2017-12-12T02:39:18.632Z,0.20
2017-12-12T02:41:46.597Z,0.20
2017-12-12T02:44:14.960Z,0.30
2017-12-12T02:46:42.966Z,0.30
2017-12-12T02:49:11.698Z,0.30
2017-12-12T02:51:39.658Z,0.30
2017-12-12T02:54:07.620Z,0.30
2017-12-12T02:56:35.585Z,0.30
2017-12-12T02:59:03.578Z,0.30
2017-12-12T03:01:31.872Z,0.30
2017-12-12T03:03:59.831Z,0.30
2017-12-12T03:06:28.312Z,0.30
2017-12-12T03:08:56.284Z,0.30
2017-12-12T03:11:24.282Z,0.30
2017-12-12T03:13:53.035Z,0.30
2017-12-12T03:16:20.739Z,0.30
2017-12-12T03:18:49.509Z,0.40
2017-12-12T03:21:17.801Z,0.30
2017-12-12T03:23:46.564Z,0.40
2017-12-12T03:26:14.594Z,0.40
2017-12-12T03:28:43.260Z,0.40
2017-12-12T03:31:11.556Z,0.40
2017-12-12T03:33:39.519Z,0.40
2017-12-12T03:36:07.507Z,0.40
2017-12-12T03:38:35.819Z,0.40
2017-12-12T03:41:04.544Z,0.40
2017-12-12T03:43:32.972Z,0.40
2017-12-12T03:46:01.092Z,0.40
2017-12-12T03:48:29.068Z,0.40
2017-12-12T03:50:57.052Z,0.40
2017-12-12T03:53:25.020Z,0.50
2017-12-12T03:55:53.000Z,0.40
2017-12-12T03:58:20.964Z,0.40
2017-12-12T04:00:48.950Z,0.50
2017-12-12T04:03:18.782Z,0.50
2017-12-12T04:05:46.738Z,0.50
2017-12-12T04:08:14.716Z,0.50
2017-12-12T04:10:43.012Z,0.50
2017-12-12T04:13:12.111Z,0.60
2017-12-12T04:15:41.157Z,0.50
2017-12-12T04:18:09.291Z,0.50
2017-12-12T04:20:37.260Z,0.50
2017-12-12T04:23:05.216Z,0.50
2017-12-12T04:25:33.264Z,0.50
2017-12-12T04:28:02.379Z,0.60
2017-12-12T04:30:30.354Z,0.50
2017-12-12T04:32:58.992Z,0.60
2017-12-12T04:35:27.283Z,0.60
2017-12-12T04:37:55.284Z,0.60
2017-12-12T04:40:23.059Z,0.60
2017-12-12T04:42:51.104Z,0.60
2017-12-12T04:45:19.886Z,0.70
2017-12-12T04:47:48.612Z,0.70
2017-12-12T04:50:17.029Z,0.70
2017-12-12T04:52:44.727Z,0.70
2017-12-12T04:55:13.476Z,0.70
2017-12-12T04:57:41.188Z,0.70
2017-12-12T05:00:09.219Z,0.80
2017-12-12T05:02:37.548Z,0.70
2017-12-12T05:05:05.263Z,0.80
2017-12-12T05:07:33.061Z,0.80
2017-12-12T05:10:01.118Z,0.90
2017-12-12T05:12:29.670Z,0.80
2017-12-12T05:14:57.400Z,0.80
2017-12-12T05:17:25.164Z,0.80
2017-12-12T05:19:53.423Z,0.80
2017-12-12T05:22:21.555Z,0.80
2017-12-12T05:24:49.595Z,0.80
2017-12-12T05:27:18.082Z,0.90
2017-12-12T05:29:46.387Z,0.90
2017-12-12T05:32:14.415Z,0.90
2017-12-12T05:34:43.240Z,0.90
2017-12-12T05:37:10.937Z,0.90
2017-12-12T05:39:39.524Z,0.90
2017-12-12T05:42:07.226Z,0.90
2017-12-12T05:44:35.612Z,0.90
2017-12-12T05:47:03.323Z,0.90
2017-12-12T05:49:31.020Z,0.80
2017-12-12T05:51:59.833Z,0.70
2017-12-12T05:54:27.547Z,0.70
2017-12-12T05:56:55.240Z,1.00
2017-12-12T05:59:24.048Z,1.00
2017-12-12T06:01:52.085Z,1.10
2017-12-12T06:04:20.577Z,1.00
2017-12-12T06:06:49.063Z,1.00
2017-12-12T06:09:17.584Z,1.00
2017-12-12T06:11:45.648Z,1.00
2017-12-12T06:14:15.669Z,1.00
2017-12-12T06:16:46.029Z,1.10
2017-12-12T06:19:15.457Z,1.10
2017-12-12T06:21:43.205Z,1.20
2017-12-12T06:24:11.687Z,1.20
2017-12-12T06:26:40.517Z,1.20
2017-12-12T06:29:08.564Z,1.20
2017-12-12T06:31:36.651Z,1.20
2017-12-12T06:34:04.354Z,1.10
2017-12-12T06:36:32.404Z,1.20
2017-12-12T06:39:00.160Z,1.20
2017-12-12T06:41:28.212Z,1.20
2017-12-12T06:43:56.173Z,1.20
2017-12-12T06:46:24.208Z,1.10
2017-12-12T06:48:51.932Z,1.00
2017-12-12T06:51:19.637Z,1.10
2017-12-12T06:53:48.122Z,1.00
2017-12-12T06:56:16.936Z,1.10
2017-12-12T06:58:44.652Z,1.10
2017-12-12T07:01:12.374Z,1.10
2017-12-12T07:03:40.071Z,1.10
2017-12-12T07:06:07.785Z,1.10
2017-12-12T07:08:35.484Z,1.20
2017-12-12T07:11:03.189Z,1.20
2017-12-12T07:13:31.666Z,1.10
2017-12-12T07:16:02.137Z,1.20
2017-12-12T07:18:29.905Z,1.20
2017-12-12T07:20:57.596Z,1.30
2017-12-12T07:23:25.966Z,1.30
2017-12-12T07:25:54.355Z,1.30
2017-12-12T07:28:22.732Z,1.30
2017-12-12T07:30:51.124Z,1.40
2017-12-12T07:33:19.484Z,1.40
2017-12-12T07:35:48.618Z,1.40
2017-12-12T07:38:17.760Z,1.50
2017-12-12T07:40:47.149Z,1.50
2017-12-12T07:43:15.524Z,1.40
2017-12-12T07:45:43.890Z,1.40
2017-12-12T07:48:12.254Z,1.30
2017-12-12T07:50:40.663Z,1.40
2017-12-12T07:53:09.021Z,1.30
2017-12-12T07:55:37.404Z,1.30
2017-12-12T07:58:05.757Z,1.30
2017-12-12T08:00:34.544Z,1.30
2017-12-12T08:03:03.345Z,1.30
2017-12-12T08:05:31.700Z,1.20
2017-12-12T08:08:00.592Z,1.30
2017-12-12T08:10:28.324Z,1.30
2017-12-12T08:12:56.700Z,1.30
2017-12-12T08:15:24.751Z,1.30
2017-12-12T08:17:53.125Z,1.40
2017-12-12T08:20:21.524Z,1.30
2017-12-12T08:22:49.980Z,1.30
2017-12-12T08:25:18.022Z,1.30
2017-12-12T08:27:47.168Z,1.30
2017-12-12T08:30:16.238Z,1.30
2017-12-12T08:32:44.628Z,1.30
2017-12-12T08:35:12.989Z,1.30
2017-12-12T08:37:41.028Z,1.40
2017-12-12T08:40:09.668Z,1.50
2017-12-12T08:42:38.024Z,1.40
2017-12-12T08:45:06.073Z,1.40
2017-12-12T08:47:34.440Z,1.50
2017-12-12T08:50:02.835Z,1.60
2017-12-12T08:52:31.977Z,1.60
2017-12-12T08:55:00.344Z,1.50
2017-12-12T08:57:28.726Z,1.70
2017-12-12T08:59:57.092Z,1.70
2017-12-12T09:02:25.571Z,1.70
2017-12-12T09:04:53.938Z,1.80
2017-12-12T09:07:22.295Z,1.70
2017-12-12T09:09:51.431Z,1.80
2017-12-12T09:12:19.794Z,1.70
2017-12-12T09:14:48.156Z,1.80
2017-12-12T09:17:16.521Z,1.70
2017-12-12T09:19:45.648Z,1.70
2017-12-12T09:22:14.024Z,1.70
2017-12-12T09:24:42.052Z,1.80
2017-12-12T09:27:11.183Z,1.70
2017-12-12T09:29:39.557Z,1.70
2017-12-12T09:32:07.920Z,1.70
2017-12-12T09:34:36.171Z,1.80
2017-12-12T09:37:04.808Z,1.80
2017-12-12T09:42:01.963Z,1.90
2017-12-12T09:44:30.450Z,1.90
2017-12-12T09:46:58.505Z,1.80
2017-12-12T09:49:26.895Z,1.70
2017-12-12T09:51:55.275Z,1.70
2017-12-12T09:54:23.020Z,1.80
2017-12-12T09:56:51.424Z,1.90
2017-12-12T09:59:19.814Z,1.70
2017-12-12T10:01:47.839Z,1.80
2017-12-12T10:04:16.959Z,1.80
2017-12-12T10:06:45.011Z,1.80
2017-12-12T10:09:13.371Z,2.10
2017-12-12T12:11:09.372Z,1.60
2017-12-12T12:13:37.441Z,1.60
2017-12-12T12:16:05.933Z,1.60
2017-12-12T12:18:33.692Z,1.60
2017-12-12T12:21:02.193Z,1.60
2017-12-12T12:23:29.957Z,1.60
2017-12-12T12:25:58.003Z,1.60
2017-12-12T12:28:26.385Z,1.50
2017-12-12T12:30:54.460Z,1.50
2017-12-12T12:33:22.567Z,1.50
2017-12-12T12:35:50.600Z,1.30
2017-12-12T12:38:18.970Z,1.30
2017-12-12T12:40:47.784Z,1.40
2017-12-12T12:43:15.488Z,1.40
2017-12-12T12:45:43.562Z,1.50
2017-12-12T12:48:11.789Z,1.50
2017-12-12T12:50:39.851Z,1.60
2017-12-12T12:53:07.570Z,1.70
2017-12-12T12:55:35.596Z,1.80
2017-12-12T12:58:03.684Z,1.40
2017-12-12T13:00:32.055Z,1.50
2017-12-12T13:03:00.410Z,1.60
2017-12-12T13:05:28.795Z,1.60
2017-12-12T13:07:57.148Z,1.70
2017-12-12T13:10:26.313Z,1.50
2017-12-12T13:12:54.738Z,1.50
2017-12-12T13:15:23.100Z,1.50
2017-12-12T13:17:52.257Z,1.50
2017-12-12T13:20:20.627Z,1.50
2017-12-12T13:22:49.087Z,1.60
2017-12-12T13:25:17.464Z,1.40
2017-12-12T13:27:45.827Z,1.30
2017-12-12T13:30:14.204Z,1.20
2017-12-12T13:32:42.824Z,1.30
2017-12-12T13:35:11.663Z,1.30
2017-12-12T13:37:40.796Z,1.30
2017-12-12T13:40:09.175Z,1.30
2017-12-12T13:42:37.557Z,1.20
2017-12-12T13:45:05.922Z,1.20
2017-12-12T13:47:34.317Z,1.10
2017-12-12T13:50:02.805Z,1.20
2017-12-12T13:52:31.198Z,1.20
2017-12-12T13:54:59.606Z,1.30
2017-12-12T13:57:28.745Z,1.10
2017-12-12T13:59:57.122Z,1.10
2017-12-12T14:02:25.491Z,1.10
2017-12-12T14:04:53.857Z,1.20
2017-12-12T14:07:22.256Z,1.30
2017-12-12T14:09:50.616Z,1.30
2017-12-12T14:12:18.992Z,1.20
2017-12-12T14:14:47.556Z,1.30
2017-12-12T14:17:16.692Z,1.10
2017-12-12T14:19:45.071Z,1.10
2017-12-12T14:22:13.485Z,1.10
2017-12-12T14:24:41.990Z,1.20
2017-12-12T14:27:10.359Z,1.30
2017-12-12T14:29:39.491Z,1.20
2017-12-12T14:32:07.880Z,1.20
2017-12-12T14:34:36.242Z,0.90
2017-12-12T14:37:04.632Z,0.90
2017-12-12T14:39:33.104Z,0.80
2017-12-12T14:42:01.507Z,0.80
2017-12-12T14:44:29.892Z,0.70
2017-12-12T14:46:58.248Z,0.80
2017-12-12T14:49:26.467Z,0.70
2017-12-12T14:51:54.846Z,0.80
2017-12-12T14:54:23.275Z,0.80
2017-12-12T14:56:51.636Z,0.90
2017-12-12T14:59:19.988Z,1.00
2017-12-12T15:01:49.170Z,1.10
2017-12-12T15:04:17.536Z,1.10
2017-12-12T15:06:45.900Z,1.10
2017-12-12T15:09:14.308Z,1.10
2017-12-12T15:11:42.924Z,1.10
2017-12-12T15:14:11.305Z,1.10
2017-12-12T15:16:39.949Z,1.10
2017-12-12T15:19:08.312Z,1.20
2017-12-12T15:21:36.684Z,1.20
2017-12-12T15:24:08.074Z,1.10
2017-12-12T15:26:37.502Z,1.10
2017-12-12T15:29:05.866Z,1.10
2017-12-12T15:31:34.989Z,1.20
2017-12-12T15:34:03.465Z,1.20
2017-12-12T15:36:31.500Z,1.20
2017-12-12T15:39:00.701Z,1.30
2017-12-12T15:41:29.168Z,1.30
2017-12-12T15:43:57.540Z,1.30
2017-12-12T15:46:25.927Z,1.30
2017-12-12T15:48:55.055Z,1.40
2017-12-12T15:51:23.452Z,1.40
2017-12-12T15:53:51.822Z,1.30
2017-12-12T15:56:20.254Z,1.30
2017-12-12T15:58:48.994Z,1.30
2017-12-12T16:01:17.344Z,1.40
2017-12-12T16:03:45.752Z,1.30
2017-12-12T16:06:14.122Z,1.30
2017-12-12T16:08:42.484Z,1.30
2017-12-12T16:11:10.863Z,1.30
2017-12-12T16:13:39.226Z,1.30
2017-12-12T16:16:07.886Z,1.40
2017-12-12T16:18:37.023Z,1.40
2017-12-12T16:21:05.413Z,1.40
2017-12-12T16:23:33.785Z,1.50
2017-12-12T16:26:02.156Z,1.50
2017-12-12T16:28:30.559Z,1.50
2017-12-12T16:30:58.931Z,1.50
2017-12-12T16:33:26.670Z,1.50
2017-12-12T16:35:54.743Z,1.50
2017-12-12T16:38:22.594Z,1.50
2017-12-12T16:40:51.405Z,1.40
2017-12-12T16:43:19.847Z,1.40
2017-12-12T16:45:48.252Z,1.50
2017-12-12T16:48:16.611Z,1.50
2017-12-12T16:50:45.753Z,1.60
2017-12-12T16:53:14.122Z,1.50
2017-12-12T16:55:42.499Z,1.50
2017-12-12T16:58:10.864Z,1.50
2017-12-12T17:00:38.945Z,1.60
2017-12-12T17:03:07.315Z,1.60
2017-12-12T17:05:35.704Z,1.60
2017-12-12T17:08:04.093Z,1.60
2017-12-12T17:10:32.564Z,1.60
2017-12-12T17:13:00.952Z,1.60
2017-12-12T17:15:29.423Z,1.60
2017-12-12T17:17:57.784Z,1.60
2017-12-12T17:20:25.494Z,1.60
2017-12-12T17:22:53.862Z,1.60
2017-12-12T17:25:22.241Z,1.60
2017-12-12T17:27:50.608Z,1.60
2017-12-12T17:30:18.969Z,1.60
2017-12-12T17:32:47.343Z,1.60
2017-12-12T17:35:15.709Z,1.60
2017-12-12T17:37:44.109Z,1.60
2017-12-12T17:40:12.468Z,1.60
2017-12-12T17:42:40.872Z,1.50
2017-12-12T17:45:10.290Z,1.50
2017-12-12T17:47:38.680Z,1.50
2017-12-12T17:50:07.081Z,1.50
2017-12-12T17:52:35.440Z,1.50
2017-12-12T17:55:03.813Z,1.60
2017-12-12T17:57:32.198Z,1.60
2017-12-12T18:00:00.567Z,1.50
2017-12-12T18:02:28.948Z,1.50
2017-12-12T18:04:57.312Z,1.50
2017-12-12T18:07:25.702Z,1.50
2017-12-12T18:09:54.085Z,1.50
2017-12-12T18:12:22.455Z,1.40
2017-12-12T18:14:50.842Z,1.40
2017-12-12T18:17:19.195Z,1.40
2017-12-12T18:19:47.565Z,1.40
2017-12-12T18:22:15.941Z,1.40
2017-12-12T18:24:44.313Z,1.40
2017-12-12T18:27:12.700Z,1.40
2017-12-12T18:29:41.074Z,1.40
2017-12-12T18:32:09.437Z,1.40
2017-12-12T18:34:37.814Z,1.50
2017-12-12T18:37:06.188Z,1.50
2017-12-12T18:39:34.574Z,1.60
2017-12-12T18:42:02.940Z,1.60
2017-12-12T18:44:32.065Z,1.50
2017-12-12T18:47:00.440Z,1.50
2017-12-12T18:49:28.798Z,1.60
2017-12-12T18:51:57.178Z,1.50
2017-12-12T18:54:25.556Z,1.50
2017-12-12T18:56:53.923Z,1.50
2017-12-12T18:59:23.076Z,1.40
2017-12-12T19:01:51.444Z,1.40
2017-12-12T19:04:19.856Z,1.40
2017-12-12T19:06:49.098Z,1.30
2017-12-12T19:09:17.508Z,1.30
2017-12-12T19:11:45.903Z,1.20
2017-12-12T19:14:15.361Z,1.20
2017-12-12T19:16:43.765Z,1.20
2017-12-12T19:19:12.145Z,1.20
2017-12-12T19:21:40.660Z,1.20
2017-12-12T19:24:10.012Z,1.10
2017-12-12T19:26:38.061Z,1.10
2017-12-12T19:29:06.484Z,1.10
2017-12-12T19:31:34.585Z,1.10
2017-12-12T19:34:03.721Z,1.10
2017-12-12T19:36:32.120Z,1.10
2017-12-12T19:39:00.490Z,1.10
2017-12-12T19:41:28.880Z,1.10
2017-12-12T19:43:57.349Z,1.00
2017-12-12T19:46:25.751Z,1.10
2017-12-12T19:48:54.066Z,1.10
2017-12-12T19:51:22.806Z,1.10
2017-12-12T19:53:51.475Z,1.10
2017-12-12T19:56:19.963Z,1.00
2017-12-12T19:58:49.230Z,1.10
2017-12-12T20:01:17.296Z,1.10
2017-12-12T20:03:45.710Z,1.10
2017-12-12T20:06:14.103Z,1.10
2017-12-12T20:08:43.369Z,1.00
2017-12-12T20:11:11.776Z,1.00
2017-12-12T20:13:40.170Z,1.00
2017-12-12T20:16:08.540Z,1.00
2017-12-12T20:18:37.230Z,1.00
2017-12-12T20:21:05.605Z,0.90
2017-12-12T20:23:34.068Z,0.90
2017-12-12T20:26:02.758Z,0.90
2017-12-12T20:28:31.598Z,0.90
2017-12-12T20:30:59.968Z,0.90
2017-12-12T20:33:29.469Z,0.80
2017-12-12T20:35:58.121Z,0.80
2017-12-12T20:38:26.766Z,0.80
2017-12-12T20:40:55.243Z,0.80
2017-12-12T20:43:24.673Z,0.80
2017-12-12T20:45:53.144Z,0.80
2017-12-12T20:48:21.576Z,0.80
2017-12-12T20:50:50.907Z,0.70
2017-12-12T20:53:20.562Z,0.70
2017-12-12T20:55:49.580Z,0.70
2017-12-12T20:58:18.436Z,0.70
2017-12-12T21:00:47.395Z,0.70
2017-12-12T21:03:15.861Z,0.70
2017-12-12T21:05:44.241Z,0.70
2017-12-12T21:08:12.607Z,0.70
2017-12-12T21:10:41.255Z,0.70
2017-12-12T21:13:09.656Z,0.70
2017-12-12T21:15:40.016Z,0.60
2017-12-12T21:18:08.930Z,0.60
2017-12-12T21:20:37.358Z,0.70
2017-12-12T21:23:06.853Z,0.70
2017-12-12T21:25:35.690Z,0.70
2017-12-12T21:28:04.568Z,0.70
2017-12-12T21:30:34.054Z,0.70
2017-12-12T21:33:02.496Z,0.60
2017-12-12T21:35:31.285Z,0.60
2017-12-12T21:37:59.647Z,0.60
2017-12-12T21:40:28.039Z,0.60
2017-12-12T21:42:56.425Z,0.60
2017-12-12T21:45:25.159Z,0.60
2017-12-12T21:47:53.552Z,0.60
2017-12-12T21:50:22.222Z,0.60
2017-12-12T21:52:50.923Z,0.60
2017-12-12T21:55:19.398Z,0.60
2017-12-12T21:57:47.936Z,0.60
2017-12-12T22:00:17.253Z,0.50
2017-12-12T22:02:45.916Z,0.50
2017-12-12T22:05:15.057Z,0.50
2017-12-12T22:07:43.426Z,0.50
2017-12-12T22:10:12.977Z,0.50
2017-12-12T22:12:41.481Z,0.50
2017-12-12T22:15:10.148Z,0.50
2017-12-12T22:17:38.748Z,0.50
2017-12-12T22:20:07.361Z,0.50
2017-12-12T22:22:36.008Z,0.50
2017-12-12T22:25:05.170Z,0.50
2017-12-12T22:27:33.798Z,0.50
2017-12-12T22:30:02.438Z,0.50
2017-12-12T22:32:32.147Z,0.50
2017-12-12T22:35:00.851Z,0.50
2017-12-12T22:37:29.476Z,0.60
2017-12-12T22:39:58.896Z,0.70
2017-12-12T22:42:28.282Z,0.70
2017-12-12T22:44:57.689Z,0.70
2017-12-12T22:47:26.340Z,0.70
2017-12-12T22:49:54.985Z,0.80
2017-12-12T22:52:23.617Z,0.80
2017-12-12T22:54:52.312Z,0.70
2017-12-12T22:57:20.936Z,0.70
2017-12-12T22:59:49.300Z,0.80
2017-12-12T23:02:18.716Z,0.80
2017-12-12T23:04:48.137Z,0.80
2017-12-12T23:07:16.788Z,0.80
2017-12-12T23:09:45.172Z,0.80
2017-12-12T23:12:14.582Z,0.80
2017-12-12T23:14:42.963Z,0.80
2017-12-12T23:17:11.681Z,0.80
2017-12-12T23:19:40.393Z,0.70
2017-12-12T23:22:08.765Z,0.70
2017-12-12T23:24:37.553Z,0.70
2017-12-12T23:27:06.349Z,0.70
2017-12-12T23:29:34.992Z,0.70
2017-12-12T23:32:03.390Z,0.70
2017-12-12T23:34:32.062Z,0.70
2017-12-12T23:37:00.692Z,0.70
2017-12-12T23:39:29.348Z,0.70
2017-12-12T23:41:58.496Z,0.70
2017-12-12T23:44:27.920Z,0.70
2017-12-12T23:46:56.569Z,0.80
2017-12-12T23:49:25.969Z,0.80
